createdAt,value
2023-11-22T00:02:16.414Z,5.14
2023-11-22T00:04:45.114Z,5.12
2023-11-22T00:07:15.037Z,5.07
2023-11-22T00:09:44.371Z,5.05
2023-11-22T00:12:12.996Z,5.06
2023-11-22T00:14:41.730Z,5.05
2023-11-22T00:17:11.926Z,5.05
2023-11-22T00:19:41.243Z,5.06
2023-11-22T00:22:14.655Z,5.06
2023-11-22T00:24:46.957Z,5.05
2023-11-22T00:27:16.572Z,4.99
2023-11-22T00:29:47.113Z,4.90
2023-11-22T00:32:15.542Z,4.84
2023-11-22T00:34:44.011Z,4.77
2023-11-22T00:37:12.453Z,4.71
2023-11-22T00:39:40.900Z,4.71
2023-11-22T00:42:10.971Z,4.59
2023-11-22T00:44:39.713Z,4.56
2023-11-22T00:47:08.215Z,4.55
2023-11-22T00:49:36.786Z,4.52
2023-11-22T00:52:05.715Z,4.58
2023-11-22T00:54:34.285Z,4.51
2023-11-22T00:57:02.703Z,4.61
2023-11-22T00:59:32.499Z,4.58
2023-11-22T01:02:02.410Z,4.44
2023-11-22T01:04:35.014Z,4.33
2023-11-22T01:07:05.142Z,4.10
2023-11-22T01:09:34.037Z,3.99
2023-11-22T01:12:02.602Z,3.87
2023-11-22T01:14:32.503Z,3.83
2023-11-22T01:17:00.928Z,3.84
2023-11-22T01:19:29.473Z,3.90
2023-11-22T01:21:57.899Z,3.87
2023-11-22T01:24:27.242Z,3.69
2023-11-22T01:26:56.207Z,3.61
2023-11-22T01:29:24.654Z,3.60
2023-11-22T01:31:54.760Z,3.39
2023-11-22T01:34:23.203Z,3.18
2023-11-22T01:36:52.408Z,3.12
2023-11-22T01:39:21.889Z,3.18
2023-11-22T01:41:50.955Z,2.99
2023-11-22T01:44:20.701Z,3.10
2023-11-22T01:46:49.690Z,3.04
2023-11-22T01:49:19.939Z,3.10
2023-11-22T01:51:48.578Z,3.11
2023-11-22T01:54:20.133Z,3.10
2023-11-22T01:56:48.911Z,2.95
2023-11-22T01:59:17.669Z,2.86
2023-11-22T02:01:46.215Z,2.80
2023-11-22T02:04:15.146Z,2.76
2023-11-22T02:06:44.990Z,2.78
2023-11-22T02:09:16.460Z,2.72
2023-11-22T02:11:46.604Z,2.61
2023-11-22T02:14:15.318Z,2.73
2023-11-22T02:16:44.162Z,2.76
2023-11-22T02:19:18.025Z,2.74
2023-11-22T02:21:48.376Z,2.66
2023-11-22T02:24:18.258Z,2.57
2023-11-22T02:26:47.527Z,2.56
2023-11-22T02:29:16.322Z,2.46
2023-11-22T02:31:45.506Z,2.42
2023-11-22T02:34:14.263Z,2.52
2023-11-22T02:36:51.175Z,2.37
2023-11-22T02:39:29.461Z,2.38
2023-11-22T02:41:58.690Z,2.30
2023-11-22T02:44:26.130Z,2.36
2023-11-22T02:46:55.085Z,2.22
2023-11-22T02:49:23.468Z,2.30
2023-11-22T02:51:52.168Z,2.20
2023-11-22T02:54:20.740Z,2.33
2023-11-22T02:56:51.665Z,2.20
2023-11-22T02:59:20.554Z,2.09
2023-11-22T03:01:49.174Z,2.13
2023-11-22T03:04:17.674Z,2.09
2023-11-22T03:06:46.551Z,2.03
2023-11-22T03:09:16.001Z,1.92
2023-11-22T03:11:44.676Z,1.89
2023-11-22T03:14:14.610Z,1.94
2023-11-22T03:16:43.695Z,1.94
2023-11-22T03:19:14.386Z,1.94
2023-11-22T03:21:45.064Z,1.92
2023-11-22T03:24:13.916Z,1.78
2023-11-22T03:26:42.389Z,1.76
2023-11-22T03:29:11.486Z,1.73
2023-11-22T03:31:41.385Z,1.67
2023-11-22T03:34:10.023Z,1.64
2023-11-22T03:36:38.488Z,1.61
2023-11-22T03:39:07.019Z,1.60
2023-11-22T03:41:35.510Z,1.56
2023-11-22T03:44:04.426Z,1.59
2023-11-22T03:46:32.992Z,1.54
2023-11-22T03:49:04.006Z,1.51
2023-11-22T03:51:32.688Z,1.46
2023-11-22T03:54:01.493Z,1.40
2023-11-22T03:56:30.403Z,1.42
2023-11-22T03:58:58.769Z,1.40
2023-11-22T04:01:27.277Z,1.37
2023-11-22T04:03:55.923Z,1.45
2023-11-22T04:06:25.665Z,1.29
2023-11-22T04:08:54.394Z,1.23
2023-11-22T04:11:22.963Z,1.15
2023-11-22T04:13:51.411Z,1.20
2023-11-22T04:16:20.242Z,1.16
2023-11-22T04:18:48.989Z,1.18
2023-11-22T04:21:17.601Z,1.09
2023-11-22T04:23:49.162Z,1.13
2023-11-22T04:26:17.801Z,1.06
2023-11-22T04:28:46.152Z,0.99
2023-11-22T04:31:14.527Z,1.06
2023-11-22T04:33:43.058Z,1.08
2023-11-22T04:36:13.071Z,1.08
2023-11-22T04:38:41.667Z,1.05
2023-11-22T04:41:11.507Z,1.02
2023-11-22T04:43:39.930Z,1.01
2023-11-22T04:46:09.593Z,1.01
2023-11-22T04:48:41.534Z,1.00
2023-11-22T04:51:10.058Z,1.01
2023-11-22T04:53:38.493Z,1.04
2023-11-22T04:56:08.031Z,0.97
2023-11-22T04:58:37.816Z,1.00
2023-11-22T05:01:06.474Z,0.94
2023-11-22T05:03:35.002Z,1.02
2023-11-22T05:06:03.362Z,1.06
2023-11-22T05:08:31.812Z,1.10
2023-11-22T05:11:00.658Z,1.02
2023-11-22T05:13:29.122Z,0.98
2023-11-22T05:15:58.954Z,0.99
2023-11-22T05:18:27.456Z,0.99
2023-11-22T05:20:55.867Z,1.01
2023-11-22T05:23:24.281Z,0.99
2023-11-22T05:25:53.013Z,1.09
2023-11-22T05:28:21.471Z,0.99
2023-11-22T05:30:50.043Z,1.01
2023-11-22T05:33:19.878Z,1.10
2023-11-22T05:35:48.650Z,1.00
2023-11-22T05:38:17.342Z,0.97
2023-11-22T05:40:46.414Z,0.95
2023-11-22T05:43:14.990Z,0.88
2023-11-22T05:45:43.409Z,0.82
2023-11-22T05:48:12.000Z,0.76
2023-11-22T05:50:41.899Z,0.82
2023-11-22T05:53:12.076Z,0.71
2023-11-22T05:55:40.643Z,0.66
2023-11-22T05:58:09.018Z,0.62
2023-11-22T06:00:39.003Z,0.66
2023-11-22T06:03:07.383Z,0.59
2023-11-22T06:05:36.004Z,0.50
2023-11-22T06:08:06.429Z,0.46
2023-11-22T06:10:35.073Z,0.40
2023-11-22T06:13:03.501Z,0.37
2023-11-22T06:15:33.439Z,0.35
2023-11-22T06:18:02.218Z,0.30
2023-11-22T06:20:30.830Z,0.24
2023-11-22T06:22:59.331Z,0.23
2023-11-22T06:25:29.448Z,0.22
2023-11-22T06:27:59.719Z,0.21
2023-11-22T06:30:29.128Z,0.21
2023-11-22T06:32:57.698Z,0.18
2023-11-22T06:35:26.201Z,0.14
2023-11-22T06:37:54.647Z,0.14
2023-11-22T06:40:23.781Z,0.13
2023-11-22T06:42:53.598Z,0.14
2023-11-22T06:45:22.227Z,0.14
2023-11-22T06:47:51.458Z,0.09
2023-11-22T06:50:19.976Z,0.07
2023-11-22T06:52:51.197Z,0.05
2023-11-22T06:55:19.757Z,0.05
2023-11-22T06:57:48.350Z,0.07
2023-11-22T07:00:19.338Z,0.07
2023-11-22T07:02:48.041Z,0.08
2023-11-22T07:05:16.612Z,0.14
2023-11-22T07:07:45.033Z,0.09
2023-11-22T07:10:15.023Z,0.13
2023-11-22T07:12:44.334Z,0.14
2023-11-22T07:15:13.069Z,0.21
2023-11-22T07:17:43.141Z,0.28
2023-11-22T07:20:17.459Z,0.38
2023-11-22T07:22:46.682Z,0.51
2023-11-22T07:25:19.577Z,0.99
2023-11-22T07:27:48.626Z,1.81
2023-11-22T07:30:17.427Z,3.04
2023-11-22T07:32:47.327Z,4.35
2023-11-22T07:35:16.590Z,4.77
2023-11-22T07:37:45.264Z,4.57
2023-11-22T07:40:15.034Z,3.99
2023-11-22T07:42:45.266Z,3.26
2023-11-22T07:45:14.642Z,3.21
2023-11-22T07:47:44.860Z,4.20
2023-11-22T07:50:14.981Z,5.61
2023-11-22T07:52:43.632Z,6.90
2023-11-22T07:55:12.184Z,7.93
2023-11-22T07:57:40.884Z,8.75
2023-11-22T08:00:10.333Z,9.73
2023-11-22T08:02:39.913Z,10.64
2023-11-22T08:05:10.453Z,11.42
2023-11-22T08:07:41.944Z,12.35
2023-11-22T08:10:18.480Z,13.04
2023-11-22T08:12:49.015Z,13.77
2023-11-22T08:15:19.451Z,13.92
2023-11-22T08:17:49.189Z,13.87
2023-11-22T08:20:19.708Z,13.52
2023-11-22T08:22:52.142Z,12.38
2023-11-22T08:25:21.166Z,12.43
2023-11-22T08:27:49.682Z,12.80
2023-11-22T08:30:19.157Z,14.13
2023-11-22T08:32:54.984Z,15.22
2023-11-22T08:35:24.821Z,16.04
2023-11-22T08:37:56.273Z,14.60
2023-11-22T08:40:26.943Z,14.41
2023-11-22T08:42:55.719Z,14.66
2023-11-22T08:45:24.319Z,15.11
2023-11-22T08:47:53.024Z,15.82
2023-11-22T08:50:22.353Z,16.65
2023-11-22T08:52:54.026Z,18.20
2023-11-22T08:55:25.152Z,19.13
2023-11-22T08:57:53.670Z,19.09
2023-11-22T09:00:24.428Z,18.90
2023-11-22T09:02:53.480Z,17.63
2023-11-22T09:05:22.661Z,16.03
2023-11-22T09:07:52.218Z,17.44
2023-11-22T09:10:22.939Z,16.48
2023-11-22T09:12:53.041Z,15.89
2023-11-22T09:15:27.365Z,14.35
2023-11-22T09:17:56.472Z,11.28
2023-11-22T09:20:25.261Z,10.02
2023-11-22T09:22:55.661Z,9.40
2023-11-22T09:25:26.330Z,9.89
2023-11-22T09:28:00.354Z,10.11
2023-11-22T09:30:38.848Z,10.58
2023-11-22T09:33:08.934Z,9.32
2023-11-22T09:35:38.312Z,8.31
2023-11-22T09:38:10.958Z,7.53
2023-11-22T09:40:43.282Z,7.68
2023-11-22T09:43:16.237Z,7.59
2023-11-22T09:45:46.149Z,7.56
2023-11-22T09:48:18.711Z,6.82
2023-11-22T09:50:54.852Z,6.78
2023-11-22T09:53:30.826Z,6.73
2023-11-22T09:56:00.069Z,6.27
2023-11-22T09:58:32.420Z,6.26
2023-11-22T10:01:02.040Z,6.46
2023-11-22T10:03:31.308Z,6.18
2023-11-22T10:06:01.028Z,5.84
2023-11-22T10:08:31.175Z,5.77
2023-11-22T10:11:00.952Z,5.91
2023-11-22T10:13:30.874Z,6.27
2023-11-22T10:16:11.578Z,6.48
2023-11-22T10:18:44.259Z,6.38
2023-11-22T10:21:22.892Z,6.79
2023-11-22T10:23:52.891Z,7.08
2023-11-22T10:26:22.406Z,7.32
2023-11-22T10:28:54.588Z,6.88
2023-11-22T10:31:24.031Z,6.98
2023-11-22T10:33:54.322Z,7.01
2023-11-22T10:36:23.970Z,7.61
2023-11-22T10:38:52.939Z,8.00
2023-11-22T10:41:22.972Z,8.72
2023-11-22T10:43:55.185Z,8.12
2023-11-22T10:46:29.408Z,8.41
2023-11-22T10:48:59.266Z,8.68
2023-11-22T10:51:32.946Z,8.47
2023-11-22T10:54:04.581Z,8.85
2023-11-22T10:56:40.914Z,8.58
2023-11-22T10:59:16.172Z,8.77
2023-11-22T11:01:50.455Z,8.28
2023-11-22T11:04:25.893Z,8.48
2023-11-22T11:06:57.800Z,8.74
2023-11-22T11:09:33.379Z,8.68
2023-11-22T11:12:05.062Z,8.00
2023-11-22T11:14:37.549Z,8.18
2023-11-22T11:17:07.621Z,7.75
2023-11-22T11:19:36.978Z,7.65
2023-11-22T11:22:06.317Z,7.33
2023-11-22T11:24:41.291Z,8.09
2023-11-22T11:27:12.192Z,8.52
2023-11-22T11:29:44.161Z,8.35
2023-11-22T11:32:14.499Z,8.90
2023-11-22T11:34:52.270Z,8.53
2023-11-22T11:37:22.148Z,8.15
2023-11-22T11:39:50.731Z,8.24
2023-11-22T11:42:21.967Z,8.34
2023-11-22T11:45:08.292Z,9.09
2023-11-22T11:47:37.593Z,9.56
2023-11-22T11:50:07.668Z,10.03
2023-11-22T11:52:36.756Z,10.13
2023-11-22T11:55:07.440Z,9.31
2023-11-22T11:57:37.087Z,9.08
2023-11-22T12:00:10.618Z,8.63
2023-11-22T12:02:40.093Z,7.69
2023-11-22T12:05:10.647Z,7.74
2023-11-22T12:07:39.992Z,7.91
2023-11-22T12:10:09.535Z,8.68
2023-11-22T12:12:38.359Z,10.43
2023-11-22T12:15:11.664Z,11.82
2023-11-22T12:17:40.538Z,14.08
2023-11-22T12:20:19.598Z,12.53
2023-11-22T12:22:49.395Z,11.19
2023-11-22T12:25:18.151Z,9.31
2023-11-22T12:27:47.373Z,8.35
2023-11-22T12:30:33.642Z,7.34
2023-11-22T12:33:06.964Z,7.18
2023-11-22T12:35:37.013Z,6.75
2023-11-22T12:38:08.256Z,6.65
2023-11-22T12:40:37.033Z,6.58
2023-11-22T12:43:07.937Z,6.58
2023-11-22T12:45:40.466Z,6.60
2023-11-22T12:48:24.779Z,6.28
2023-11-22T12:50:55.026Z,6.42
2023-11-22T12:53:23.932Z,6.28
2023-11-22T12:55:55.318Z,6.44
2023-11-22T12:58:27.250Z,6.67
2023-11-22T13:01:02.903Z,6.70
2023-11-22T13:03:33.103Z,6.66
2023-11-22T13:06:02.281Z,6.47
2023-11-22T13:08:32.249Z,6.33
2023-11-22T13:11:01.381Z,6.35
2023-11-22T13:13:32.286Z,6.46
2023-11-22T13:16:02.454Z,6.59
2023-11-22T13:18:31.098Z,6.71
2023-11-22T13:20:59.685Z,6.98
2023-11-22T13:23:28.145Z,7.22
2023-11-22T13:25:56.626Z,7.35
2023-11-22T13:28:26.403Z,7.50
2023-11-22T13:30:55.085Z,7.62
2023-11-22T13:33:25.284Z,7.41
2023-11-22T13:35:53.835Z,7.28
2023-11-22T13:38:22.469Z,7.35
2023-11-22T13:40:51.030Z,7.43
2023-11-22T13:43:20.737Z,7.69
2023-11-22T13:45:51.378Z,7.85
2023-11-22T13:48:20.115Z,8.06
2023-11-22T13:50:50.622Z,8.25
2023-11-22T13:53:23.000Z,8.36
2023-11-22T13:55:53.712Z,8.13
2023-11-22T13:58:22.164Z,7.74
2023-11-22T14:00:50.852Z,8.00
2023-11-22T14:03:20.190Z,8.12
2023-11-22T14:05:50.243Z,8.18
2023-11-22T14:08:18.964Z,8.00
2023-11-22T14:10:47.539Z,7.81
2023-11-22T14:13:15.944Z,7.57
2023-11-22T14:15:44.406Z,7.31
2023-11-22T14:18:12.930Z,7.01
2023-11-22T14:20:41.518Z,6.61
2023-11-22T14:23:11.744Z,6.26
2023-11-22T14:25:41.793Z,6.05
2023-11-22T14:28:10.988Z,5.93
2023-11-22T14:30:39.650Z,5.85
2023-11-22T14:33:09.332Z,5.65
2023-11-22T14:35:38.482Z,5.71
2023-11-22T14:38:08.280Z,5.54
2023-11-22T14:40:40.867Z,5.41
2023-11-22T14:43:09.887Z,5.36
2023-11-22T14:45:39.060Z,5.38
2023-11-22T14:48:08.853Z,5.46
2023-11-22T14:50:37.581Z,5.40
2023-11-22T14:53:07.025Z,5.38
2023-11-22T14:55:40.843Z,5.26
2023-11-22T14:58:11.054Z,5.16
2023-11-22T15:00:39.577Z,5.18
2023-11-22T15:03:09.113Z,5.07
2023-11-22T15:05:39.453Z,5.15
2023-11-22T15:08:08.797Z,5.09
2023-11-22T15:10:38.349Z,5.03
2023-11-22T15:13:06.885Z,4.98
2023-11-22T15:15:36.765Z,4.99
2023-11-22T15:18:05.573Z,5.03
2023-11-22T15:20:34.848Z,5.00
2023-11-22T15:23:04.428Z,4.99
2023-11-22T15:25:33.481Z,4.96
2023-11-22T15:28:02.047Z,4.98
2023-11-22T15:30:30.969Z,5.07
2023-11-22T15:33:00.926Z,4.99
2023-11-22T15:35:29.632Z,5.02
2023-11-22T15:37:58.119Z,5.03
2023-11-22T15:40:27.422Z,5.05
2023-11-22T15:42:55.883Z,5.05
2023-11-22T15:45:24.468Z,5.19
2023-11-22T15:47:53.589Z,5.19
2023-11-22T15:50:23.768Z,5.12
2023-11-22T15:52:52.858Z,5.08
2023-11-22T15:55:21.327Z,4.93
2023-11-22T15:57:49.998Z,5.00
2023-11-22T16:00:18.968Z,5.07
2023-11-22T16:02:47.934Z,4.97
2023-11-22T16:05:16.739Z,5.01
2023-11-22T16:07:46.876Z,5.04
2023-11-22T16:10:15.334Z,4.97
2023-11-22T16:12:43.959Z,4.96
2023-11-22T16:15:13.872Z,4.88
2023-11-22T16:17:43.246Z,4.94
2023-11-22T16:20:13.709Z,4.95
2023-11-22T16:22:45.660Z,4.97
2023-11-22T16:25:23.671Z,4.89
2023-11-22T16:27:53.054Z,4.91
2023-11-22T16:30:23.687Z,4.98
2023-11-22T16:32:52.615Z,5.05
2023-11-22T16:35:22.552Z,5.00
2023-11-22T16:37:51.062Z,5.12
2023-11-22T16:40:20.959Z,5.08
2023-11-22T16:42:49.713Z,5.06
2023-11-22T16:45:18.319Z,4.97
2023-11-22T16:47:48.009Z,5.04
2023-11-22T16:50:16.746Z,4.97
2023-11-22T16:52:45.329Z,5.08
2023-11-22T16:55:14.724Z,5.10
2023-11-22T16:57:44.782Z,5.04
2023-11-22T17:00:18.801Z,5.07
2023-11-22T17:02:49.583Z,5.07
2023-11-22T17:05:19.772Z,5.05
2023-11-22T17:07:48.525Z,5.03
2023-11-22T17:10:17.439Z,5.02
2023-11-22T17:12:47.458Z,5.02
2023-11-22T17:15:17.452Z,4.89
2023-11-22T17:17:46.570Z,4.92
2023-11-22T17:20:15.337Z,4.87
2023-11-22T17:22:43.883Z,4.89
2023-11-22T17:25:12.894Z,4.95
2023-11-22T17:27:52.570Z,4.94
2023-11-22T17:30:26.272Z,4.91
2023-11-22T17:32:55.509Z,4.81
2023-11-22T17:35:25.050Z,4.82
2023-11-22T17:37:58.998Z,4.89
2023-11-22T17:40:27.693Z,4.91
2023-11-22T17:42:56.186Z,4.85
2023-11-22T17:45:26.531Z,4.83
2023-11-22T17:47:55.256Z,4.82
2023-11-22T17:50:26.324Z,4.81
2023-11-22T17:52:55.469Z,4.71
2023-11-22T17:55:24.180Z,4.73
2023-11-22T17:57:52.738Z,4.70
2023-11-22T18:00:22.048Z,4.75
2023-11-22T18:02:52.830Z,4.73
2023-11-22T18:05:22.602Z,4.74
2023-11-22T18:07:52.045Z,4.74
2023-11-22T18:10:20.977Z,4.71
2023-11-22T18:12:50.557Z,4.54
2023-11-22T18:15:20.458Z,4.58
2023-11-22T18:17:49.101Z,4.57
2023-11-22T18:20:19.423Z,4.49
2023-11-22T18:22:47.977Z,4.47
2023-11-22T18:25:16.777Z,4.37
2023-11-22T18:27:45.330Z,4.37
2023-11-22T18:30:14.203Z,4.32
2023-11-22T18:32:43.743Z,4.27
2023-11-22T18:35:42.711Z,4.34
2023-11-22T18:38:11.883Z,4.21
2023-11-22T18:40:43.073Z,4.21
2023-11-22T18:43:13.382Z,4.18
2023-11-22T18:45:43.030Z,4.25
2023-11-22T18:48:11.787Z,4.23
2023-11-22T18:50:42.049Z,4.20
2023-11-22T18:53:10.587Z,4.19
2023-11-22T18:55:40.325Z,4.13
2023-11-22T18:58:09.302Z,4.08
2023-11-22T19:00:38.002Z,4.22
2023-11-22T19:03:06.109Z,4.23
2023-11-22T19:05:35.171Z,4.21
2023-11-22T19:08:05.759Z,4.31
2023-11-22T19:10:34.348Z,4.40
2023-11-22T19:13:02.925Z,4.44
2023-11-22T19:15:42.384Z,4.53
2023-11-22T19:18:11.287Z,4.50
2023-11-22T19:20:40.900Z,4.50
2023-11-22T19:23:12.687Z,4.55
2023-11-22T19:25:41.451Z,4.65
2023-11-22T19:28:11.364Z,4.63
2023-11-22T19:30:39.911Z,4.63
2023-11-22T19:33:08.546Z,4.70
2023-11-22T19:35:38.103Z,4.67
2023-11-22T19:38:07.245Z,4.67
2023-11-22T19:40:45.801Z,4.66
2023-11-22T19:43:16.343Z,4.66
2023-11-22T19:45:45.130Z,4.71
2023-11-22T19:48:13.736Z,4.77
2023-11-22T19:50:42.659Z,4.79
2023-11-22T19:53:11.472Z,4.69
2023-11-22T19:55:41.595Z,4.70
2023-11-22T19:58:10.713Z,4.73
2023-11-22T20:00:40.053Z,4.76
2023-11-22T20:03:08.699Z,4.72
2023-11-22T20:05:37.450Z,4.76
2023-11-22T20:08:07.826Z,4.78
2023-11-22T20:10:36.415Z,4.76
2023-11-22T20:13:15.824Z,4.85
2023-11-22T20:15:44.409Z,4.84
2023-11-22T20:18:13.645Z,4.85
2023-11-22T20:20:42.719Z,4.86
2023-11-22T20:23:17.457Z,4.86
2023-11-22T20:25:46.350Z,4.81
2023-11-22T20:28:16.048Z,4.79
2023-11-22T20:30:44.754Z,4.76
2023-11-22T20:33:13.436Z,4.72
2023-11-22T20:35:44.654Z,4.72
2023-11-22T20:38:13.536Z,4.68
2023-11-22T20:40:42.460Z,4.76
2023-11-22T20:43:11.546Z,4.86
2023-11-22T20:45:41.366Z,4.89
2023-11-22T20:48:10.264Z,4.84
2023-11-22T20:50:39.075Z,4.87
2023-11-22T20:53:07.566Z,4.92
2023-11-22T20:55:36.074Z,4.88
2023-11-22T20:58:04.630Z,4.86
2023-11-22T21:00:33.257Z,4.78
2023-11-22T21:03:03.619Z,4.73
2023-11-22T21:05:32.519Z,4.64
2023-11-22T21:08:05.925Z,4.65
2023-11-22T21:10:34.669Z,4.63
2023-11-22T21:13:03.209Z,4.63
2023-11-22T21:15:31.711Z,4.60
2023-11-22T21:18:00.371Z,4.71
2023-11-22T21:20:30.436Z,4.75
2023-11-22T21:22:59.008Z,4.74
2023-11-22T21:25:27.574Z,4.80
2023-11-22T21:27:56.182Z,4.89
2023-11-22T21:30:24.906Z,4.99
2023-11-22T21:32:53.848Z,4.96
2023-11-22T21:35:22.618Z,4.95
2023-11-22T21:37:54.556Z,4.94
2023-11-22T21:40:23.406Z,4.98
2023-11-22T21:42:52.030Z,5.04
2023-11-22T21:45:21.458Z,5.01
2023-11-22T21:47:50.139Z,4.97
2023-11-22T21:50:19.661Z,5.02
2023-11-22T21:52:48.248Z,5.00
2023-11-22T21:55:18.277Z,5.05
2023-11-22T21:57:46.877Z,5.09
2023-11-22T22:00:17.395Z,5.08
2023-11-22T22:02:46.308Z,5.14
2023-11-22T22:05:15.236Z,5.17
2023-11-22T22:07:43.685Z,5.17
2023-11-22T22:10:12.135Z,5.29
2023-11-22T22:12:42.841Z,5.34
2023-11-22T22:15:11.938Z,5.33
2023-11-22T22:17:41.163Z,5.36
2023-11-22T22:20:11.078Z,5.37
2023-11-22T22:22:39.923Z,5.39
2023-11-22T22:25:10.284Z,5.48
2023-11-22T22:27:39.171Z,5.49
2023-11-22T22:30:10.178Z,5.38
2023-11-22T22:32:38.968Z,5.37
2023-11-22T22:35:09.053Z,5.37
2023-11-22T22:37:38.802Z,5.43
2023-11-22T22:40:10.056Z,5.45
2023-11-22T22:42:39.331Z,5.35
2023-11-22T22:45:09.912Z,5.41
2023-11-22T22:47:38.904Z,5.52
2023-11-22T22:50:09.152Z,5.48
2023-11-22T22:52:38.599Z,5.49
2023-11-22T22:55:08.557Z,5.51
2023-11-22T22:57:39.068Z,5.47
2023-11-22T23:00:25.287Z,5.65
2023-11-22T23:02:54.967Z,5.70
2023-11-22T23:05:26.881Z,5.62
2023-11-22T23:07:56.387Z,5.71
2023-11-22T23:10:25.295Z,5.65
2023-11-22T23:12:55.751Z,5.65
2023-11-22T23:15:27.364Z,5.60
2023-11-22T23:17:56.615Z,5.67
2023-11-22T23:20:27.508Z,5.62
2023-11-22T23:22:59.009Z,5.57
2023-11-22T23:25:27.867Z,5.56
2023-11-22T23:27:56.630Z,5.58
2023-11-22T23:30:26.873Z,5.56
2023-11-22T23:32:55.697Z,5.51
2023-11-22T23:35:24.506Z,5.58
2023-11-22T23:37:54.656Z,5.49
2023-11-22T23:40:26.111Z,5.52
2023-11-22T23:42:56.744Z,5.55
2023-11-22T23:45:28.068Z,5.44
2023-11-22T23:47:57.106Z,5.47
2023-11-22T23:50:26.184Z,5.44
2023-11-22T23:52:55.263Z,5.47
2023-11-22T23:55:24.289Z,5.48
2023-11-22T23:57:52.937Z,5.46
